Time;durP1;ratioP1;P1;durP2;ratioP2;P2;SDS_P1;SDS_P2;PMS_P1;PMS_P2;Temp;Humidity;BMP_temperature;BMP_pressure;BME280_temperature;BME280_humidity;BME280_pressure;Samples;Min_cycle;Max_cycle;Signal;HPM_P1;HPM_P2
2022/07/09 00:02:11;;;;;;;3.08;1.25;;;20.70;87.80;;;;;;5039384;28;20044;-74
2022/07/09 00:04:38;;;;;;;0.80;0.65;;;20.80;88.50;;;;;;5038368;28;20138;-74
2022/07/09 00:07:05;;;;;;;1.67;0.52;;;21.00;89.60;;;;;;5039878;28;20033;-73
2022/07/09 00:09:33;;;;;;;0.68;0.45;;;21.10;90.30;;;;;;5032200;28;20037;-74
2022/07/09 00:12:00;;;;;;;0.52;0.30;;;21.30;89.90;;;;;;5031053;28;20445;-72
2022/07/09 00:14:29;;;;;;;1.67;0.50;;;21.30;84.90;;;;;;5047820;28;20479;-72
2022/07/09 00:16:56;;;;;;;1.13;0.20;;;21.10;86.60;;;;;;5048550;28;20340;-74
2022/07/09 00:19:24;;;;;;;0.35;0.20;;;21.50;82.90;;;;;;5062864;28;20066;-73
2022/07/09 00:21:51;;;;;;;0.22;0.10;;;21.50;81.00;;;;;;5030408;28;20112;-74
2022/07/09 00:24:18;;;;;;;0.30;0.10;;;21.40;83.20;;;;;;5046759;28;20028;-74
2022/07/09 00:26:46;;;;;;;0.75;0.10;;;21.80;82.30;;;;;;5028502;28;20060;-73
2022/07/09 00:29:13;;;;;;;0.10;0.10;;;22.00;82.70;;;;;;5044875;28;20526;-74
2022/07/09 00:31:40;;;;;;;0.30;0.10;;;22.20;81.20;;;;;;5030157;28;20025;-73
2022/07/09 00:34:08;;;;;;;1.20;0.10;;;22.60;81.40;;;;;;5042896;28;20458;-74
2022/07/09 00:36:35;;;;;;;0.30;0.10;;;22.80;82.10;;;;;;5039445;28;20353;-74
2022/07/09 00:39:02;;;;;;;0.45;0.10;;;23.00;80.30;;;;;;5042553;28;20033;-75
2022/07/09 00:41:30;;;;;;;0.28;0.10;;;23.10;79.30;;;;;;5038042;28;20025;-74
2022/07/09 00:43:57;;;;;;;0.55;0.10;;;23.40;79.00;;;;;;5029705;28;20141;-75
2022/07/09 00:46:25;;;;;;;0.35;0.20;;;23.20;77.10;;;;;;5035065;28;20056;-73
2022/07/09 00:48:52;;;;;;;0.10;0.10;;;23.40;76.40;;;;;;5046030;28;20053;-75
2022/07/09 00:51:20;;;;;;;0.40;0.10;;;23.40;76.50;;;;;;5037283;28;20013;-74
2022/07/09 00:53:48;;;;;;;0.35;0.10;;;23.40;75.60;;;;;;5048931;28;20049;-73
2022/07/09 00:56:16;;;;;;;0.10;0.10;;;23.50;77.60;;;;;;5034033;28;20112;-74
2022/07/09 00:58:46;;;;;;;0.13;0.10;;;23.90;76.80;;;;;;5062013;28;20025;-74
2022/07/09 01:01:13;;;;;;;0.30;0.10;;;24.00;74.90;;;;;;5056797;28;20036;-74
2022/07/09 01:03:41;;;;;;;0.70;0.00;;;24.00;74.70;;;;;;5047905;28;20063;-72
2022/07/09 01:06:08;;;;;;;0.50;0.10;;;24.30;73.80;;;;;;5033163;28;20033;-73
2022/07/09 01:08:36;;;;;;;0.52;0.20;;;24.30;72.50;;;;;;5030689;28;20045;-75
2022/07/09 01:11:04;;;;;;;0.13;0.00;;;24.60;74.80;;;;;;5038653;28;20032;-74
2022/07/09 01:13:34;;;;;;;0.10;0.00;;;24.60;73.30;;;;;;5033140;28;20037;-75
2022/07/09 01:16:01;;;;;;;1.02;0.10;;;24.70;71.30;;;;;;5035338;28;20405;-74
2022/07/09 01:18:28;;;;;;;0.40;0.10;;;24.50;71.20;;;;;;5028478;28;20027;-73
2022/07/09 01:20:56;;;;;;;0.00;0.00;;;24.80;72.60;;;;;;5042893;28;20490;-74
2022/07/09 01:23:24;;;;;;;1.23;0.10;;;25.10;72.70;;;;;;5050305;28;20487;-74
2022/07/09 01:25:51;;;;;;;0.68;0.10;;;25.30;70.80;;;;;;5039675;28;20112;-72
2022/07/09 01:28:18;;;;;;;0.15;0.00;;;25.50;71.10;;;;;;5043085;28;20184;-73
2022/07/09 01:30:46;;;;;;;0.22;0.10;;;25.40;71.00;;;;;;5036195;28;20039;-72
2022/07/09 01:33:14;;;;;;;0.50;0.40;;;25.50;72.00;;;;;;5019275;28;20484;-74
2022/07/09 01:35:41;;;;;;;0.00;0.00;;;25.60;70.70;;;;;;5032846;28;20056;-73
2022/07/09 01:38:08;;;;;;;0.17;0.03;;;25.50;69.90;;;;;;5054533;28;20029;-73
2022/07/09 01:40:36;;;;;;;1.30;0.00;;;25.40;70.90;;;;;;5047787;28;20470;-72
2022/07/09 01:43:04;;;;;;;3.28;0.20;;;25.40;70.70;;;;;;5022766;28;20521;-72
2022/07/09 01:45:31;;;;;;;1.15;0.20;;;25.50;70.70;;;;;;5032118;28;20068;-72
2022/07/09 01:47:59;;;;;;;0.28;0.10;;;25.70;69.40;;;;;;5040159;28;20478;-73
2022/07/09 01:50:26;;;;;;;0.15;0.08;;;25.60;68.90;;;;;;5043304;28;20501;-73
2022/07/09 01:52:53;;;;;;;0.00;0.00;;;25.40;69.60;;;;;;5038766;28;20057;-73
2022/07/09 01:55:21;;;;;;;0.17;0.03;;;25.50;70.40;;;;;;5033118;28;20037;-72
2022/07/09 01:57:48;;;;;;;0.65;0.10;;;25.80;70.00;;;;;;5032306;28;20480;-72
2022/07/09 02:00:18;;;;;;;1.55;0.00;;;26.00;70.80;;;;;;5034084;28;20026;-72
2022/07/09 02:02:45;;;;;;;0.45;0.00;;;26.30;69.90;;;;;;5034352;28;20021;-74
2022/07/09 02:05:13;;;;;;;0.50;0.10;;;26.40;70.10;;;;;;5034780;28;20040;-72
2022/07/09 02:07:40;;;;;;;0.30;0.10;;;26.40;68.40;;;;;;5037198;28;20040;-71
2022/07/09 02:10:08;;;;;;;0.70;0.35;;;26.20;67.90;;;;;;5034004;28;20036;-73
2022/07/09 02:12:35;;;;;;;0.10;0.00;;;26.00;69.30;;;;;;5034180;28;20025;-74
2022/07/09 02:15:03;;;;;;;0.28;0.10;;;25.80;69.40;;;;;;5037030;28;20037;-74
2022/07/09 02:17:30;;;;;;;0.38;0.10;;;25.90;69.90;;;;;;5034751;28;20029;-74
2022/07/09 02:19:58;;;;;;;0.32;0.10;;;25.80;70.80;;;;;;5034314;28;20033;-75
2022/07/09 02:22:25;;;;;;;0.03;0.00;;;25.90;68.70;;;;;;5035239;28;20134;-73
2022/07/09 02:24:53;;;;;;;0.08;0.00;;;26.00;68.70;;;;;;5031540;28;20445;-74
2022/07/09 02:27:20;;;;;;;0.40;0.10;;;26.10;69.90;;;;;;5032606;28;20111;-74
2022/07/09 02:29:48;;;;;;;1.20;0.45;;;26.10;70.20;;;;;;5033110;28;20037;-74
2022/07/09 02:32:15;;;;;;;0.20;0.10;;;26.00;69.20;;;;;;5034725;28;20407;-74
2022/07/09 02:34:42;;;;;;;0.10;0.10;;;25.70;68.90;;;;;;5031597;28;20028;-75
2022/07/09 02:37:10;;;;;;;0.10;0.00;;;25.50;68.60;;;;;;5034226;28;20017;-72
2022/07/09 02:39:37;;;;;;;0.32;0.08;;;25.10;70.60;;;;;;5032597;28;20052;-71
2022/07/09 02:42:05;;;;;;;0.13;0.00;;;25.10;69.70;;;;;;5033448;28;20037;-72
2022/07/09 02:44:32;;;;;;;0.10;0.05;;;25.20;70.90;;;;;;5032846;28;20195;-72
2022/07/09 02:46:59;;;;;;;0.10;0.00;;;25.00;70.20;;;;;;5033557;28;20037;-71
2022/07/09 02:49:27;;;;;;;0.32;0.00;;;24.70;70.50;;;;;;5032388;28;20474;-71
2022/07/09 02:51:57;;;;;;;0.22;0.00;;;24.70;71.70;;;;;;5029654;28;20073;-73
2022/07/09 02:54:25;;;;;;;2.10;0.10;;;24.60;71.20;;;;;;5033011;28;20052;-74
2022/07/09 02:56:52;;;;;;;0.15;0.10;;;24.30;71.20;;;;;;5029149;28;20108;-72
2022/07/09 02:59:20;;;;;;;0.30;0.10;;;24.00;71.90;;;;;;5039886;28;20052;-75
2022/07/09 03:01:47;;;;;;;1.38;0.10;;;23.70;72.50;;;;;;5039711;28;20711;-74
2022/07/09 03:04:15;;;;;;;1.50;0.10;;;23.70;72.90;;;;;;5044724;28;20127;-73
2022/07/09 03:06:42;;;;;;;0.43;0.43;;;23.60;72.80;;;;;;5052389;28;20127;-75
2022/07/09 03:09:10;;;;;;;0.20;0.00;;;23.50;72.40;;;;;;5042389;28;20111;-75
2022/07/09 03:11:37;;;;;;;0.00;0.00;;;23.00;71.70;;;;;;5037413;28;20051;-75
2022/07/09 03:14:05;;;;;;;0.38;0.00;;;22.80;72.40;;;;;;5034970;28;20036;-73
2022/07/09 03:16:32;;;;;;;0.20;0.10;;;22.60;73.00;;;;;;5040649;28;20442;-76
2022/07/09 03:18:59;;;;;;;0.13;0.10;;;22.40;73.60;;;;;;5033263;28;20036;-73
2022/07/09 03:21:27;;;;;;;0.17;0.10;;;22.30;74.90;;;;;;5031384;28;20021;-73
2022/07/09 03:23:54;;;;;;;0.28;0.00;;;22.10;73.00;;;;;;5041972;28;20470;-75
2022/07/09 03:26:21;;;;;;;0.40;0.10;;;22.00;74.20;;;;;;5035861;28;20052;-76
2022/07/09 03:28:49;;;;;;;0.20;0.10;;;21.90;74.50;;;;;;5031600;28;20379;-72
2022/07/09 03:31:16;;;;;;;0.20;0.10;;;21.90;74.90;;;;;;5031660;28;20756;-72
2022/07/09 03:33:43;;;;;;;1.38;0.57;;;21.50;74.30;;;;;;5047263;28;20479;-73
2022/07/09 03:36:11;;;;;;;1.40;0.10;;;21.10;74.70;;;;;;5032041;28;20049;-71
2022/07/09 03:38:38;;;;;;;0.10;0.00;;;20.50;75.50;;;;;;5034066;28;20048;-71
2022/07/09 03:41:05;;;;;;;0.75;0.20;;;20.00;77.30;;;;;;5033900;28;20029;-73
2022/07/09 03:43:33;;;;;;;2.22;0.10;;;19.50;77.50;;;;;;5045374;28;20397;-73
2022/07/09 03:46:00;;;;;;;0.28;0.20;;;19.30;78.60;;;;;;5036730;28;20094;-74
2022/07/09 03:48:27;;;;;;;0.90;0.10;;;19.00;79.60;;;;;;5042673;28;20032;-72
2022/07/09 03:50:55;;;;;;;1.08;0.10;;;18.70;79.90;;;;;;5031982;28;20479;-73
2022/07/09 03:53:23;;;;;;;0.75;0.00;;;18.40;80.20;;;;;;5055828;28;20483;-73
2022/07/09 03:55:50;;;;;;;0.45;0.08;;;18.30;81.80;;;;;;5032835;28;20061;-72
2022/07/09 03:58:17;;;;;;;0.13;0.00;;;18.10;81.10;;;;;;5045514;28;20116;-75
2022/07/09 04:00:45;;;;;;;0.20;0.00;;;18.00;82.50;;;;;;5043268;28;20120;-75
2022/07/09 04:03:12;;;;;;;1.05;0.20;;;17.90;82.40;;;;;;5057121;28;20025;-75
2022/07/09 04:05:39;;;;;;;0.40;0.10;;;17.70;83.10;;;;;;5045983;28;20482;-76
2022/07/09 04:08:07;;;;;;;0.00;0.00;;;17.70;82.60;;;;;;5041032;28;20082;-75
2022/07/09 04:10:34;;;;;;;0.15;0.10;;;17.60;83.40;;;;;;5039965;28;20453;-75
2022/07/09 04:13:01;;;;;;;0.38;0.00;;;17.40;83.60;;;;;;5030611;28;20026;-75
2022/07/09 04:15:29;;;;;;;1.08;0.05;;;17.40;83.70;;;;;;5039351;28;20081;-73
2022/07/09 04:17:56;;;;;;;1.13;0.10;;;17.30;83.10;;;;;;5047809;28;20078;-73
2022/07/09 04:20:25;;;;;;;1.05;0.05;;;17.20;82.70;;;;;;5039018;28;20552;-72
2022/07/09 04:22:53;;;;;;;2.67;0.15;;;17.10;83.40;;;;;;5050410;28;20540;-74
2022/07/09 04:25:21;;;;;;;0.65;0.15;;;17.10;83.70;;;;;;5038314;28;20115;-73
2022/07/09 04:27:48;;;;;;;0.20;0.08;;;17.00;84.80;;;;;;5042947;28;20459;-75
2022/07/09 04:30:16;;;;;;;0.20;0.10;;;16.90;85.10;;;;;;5042113;28;20021;-76
2022/07/09 04:32:43;;;;;;;0.00;0.00;;;16.80;84.30;;;;;;5050614;28;20032;-75
2022/07/09 04:35:11;;;;;;;0.35;0.10;;;16.70;84.10;;;;;;5045393;28;20037;-76
2022/07/09 04:37:38;;;;;;;1.85;0.00;;;16.70;84.30;;;;;;5056980;28;20028;-79
2022/07/09 04:40:06;;;;;;;0.05;0.00;;;16.60;84.20;;;;;;5039375;28;20076;-79
2022/07/09 04:42:33;;;;;;;0.10;0.00;;;16.60;85.00;;;;;;5031725;28;20041;-77
2022/07/09 04:45:01;;;;;;;0.95;0.00;;;16.50;84.70;;;;;;5055691;28;20055;-80
2022/07/09 04:47:28;;;;;;;0.10;0.10;;;16.50;85.00;;;;;;5030393;28;20379;-77
2022/07/09 04:49:56;;;;;;;0.52;0.10;;;16.40;84.90;;;;;;5030066;28;20041;-77
2022/07/09 04:52:26;;;;;;;0.20;0.10;;;16.40;85.60;;;;;;5033846;28;20065;-74
2022/07/09 04:54:54;;;;;;;0.28;0.10;;;16.50;85.10;;;;;;5042878;28;20059;-79
2022/07/09 04:57:21;;;;;;;0.00;0.00;;;16.40;85.20;;;;;;5032094;28;20361;-77
2022/07/09 04:59:48;;;;;;;0.30;0.10;;;16.40;84.90;;;;;;5032662;28;20029;-76
2022/07/09 05:02:16;;;;;;;0.10;0.00;;;16.40;85.20;;;;;;5048235;28;20029;-82
2022/07/09 05:04:43;;;;;;;0.00;0.00;;;16.40;85.40;;;;;;5049991;28;20029;-76
2022/07/09 05:07:11;;;;;;;0.00;0.00;;;16.30;85.80;;;;;;5066669;28;20020;-73
2022/07/09 05:09:38;;;;;;;0.17;0.00;;;16.30;85.30;;;;;;5056370;28;20026;-75
2022/07/09 05:12:06;;;;;;;0.10;0.00;;;16.20;85.80;;;;;;5028958;28;20029;-77
2022/07/09 05:14:33;;;;;;;0.20;0.10;;;16.20;85.90;;;;;;5037980;28;20180;-73
2022/07/09 05:17:00;;;;;;;0.00;0.00;;;16.20;86.30;;;;;;5029596;28;20455;-72
2022/07/09 05:19:28;;;;;;;0.40;0.00;;;16.20;86.50;;;;;;5042150;28;20052;-73
2022/07/09 05:21:55;;;;;;;0.20;0.10;;;16.20;86.60;;;;;;5029965;28;20137;-73
2022/07/09 05:24:22;;;;;;;0.73;0.00;;;16.10;86.20;;;;;;5045543;28;20344;-73
2022/07/09 05:26:50;;;;;;;2.08;0.10;;;16.10;86.30;;;;;;5028037;28;20032;-73
2022/07/09 05:29:17;;;;;;;0.40;0.10;;;16.10;86.60;;;;;;5040184;28;20034;-74
2022/07/09 05:31:45;;;;;;;0.10;0.00;;;16.00;87.30;;;;;;5042033;28;20483;-74
2022/07/09 05:34:13;;;;;;;1.10;0.00;;;16.00;86.90;;;;;;5049919;28;20451;-73
2022/07/09 05:36:40;;;;;;;0.28;0.25;;;16.00;86.90;;;;;;5031460;28;20051;-71
2022/07/09 05:39:08;;;;;;;0.40;0.10;;;15.90;87.40;;;;;;5030241;28;20025;-72
2022/07/09 05:41:35;;;;;;;0.05;0.05;;;15.90;87.70;;;;;;5030409;28;20587;-72
2022/07/09 05:44:03;;;;;;;0.98;0.20;;;15.90;88.20;;;;;;5029955;28;20113;-73
2022/07/09 05:46:30;;;;;;;0.73;0.40;;;15.90;87.50;;;;;;5030601;28;20037;-72
2022/07/09 05:48:58;;;;;;;2.13;1.30;;;15.90;87.50;;;;;;5033398;28;20088;-73
2022/07/09 05:51:25;;;;;;;0.93;0.30;;;15.90;87.60;;;;;;5038641;28;20035;-73
2022/07/09 05:53:52;;;;;;;4.82;2.90;;;15.90;87.60;;;;;;5050071;28;20057;-74
2022/07/09 05:56:20;;;;;;;3.35;2.15;;;15.90;88.30;;;;;;5032932;28;20056;-72
2022/07/09 05:58:48;;;;;;;4.35;1.80;;;15.90;87.60;;;;;;5030279;28;20029;-72
2022/07/09 06:01:15;;;;;;;0.40;0.30;;;15.80;88.10;;;;;;5033389;28;20451;-73
2022/07/09 06:03:43;;;;;;;5.00;3.00;;;15.90;87.30;;;;;;5045725;28;20029;-73
2022/07/09 06:06:10;;;;;;;6.90;4.50;;;15.90;88.20;;;;;;5046504;28;20095;-72
2022/07/09 06:08:38;;;;;;;2.80;0.77;;;16.00;88.10;;;;;;5038405;28;20026;-72
2022/07/09 06:11:06;;;;;;;2.72;0.98;;;16.10;87.60;;;;;;5034169;28;20072;-73
2022/07/09 06:13:33;;;;;;;1.95;1.08;;;16.20;87.90;;;;;;5029917;28;20029;-72
2022/07/09 06:16:00;;;;;;;1.92;0.57;;;16.30;88.20;;;;;;5051529;28;20117;-74
2022/07/09 06:18:28;;;;;;;0.32;0.10;;;16.40;88.60;;;;;;5036099;28;20072;-75
2022/07/09 06:20:56;;;;;;;0.55;0.13;;;16.40;87.20;;;;;;5029876;28;20053;-73
2022/07/09 06:23:23;;;;;;;0.52;0.17;;;16.60;87.90;;;;;;5046909;28;20033;-72
2022/07/09 06:25:51;;;;;;;0.40;0.20;;;16.60;87.30;;;;;;5040194;28;20339;-73
2022/07/09 06:28:18;;;;;;;0.88;0.20;;;16.60;87.40;;;;;;5033068;28;20377;-72
2022/07/09 06:30:45;;;;;;;0.43;0.30;;;16.60;87.30;;;;;;5033666;28;20037;-73
2022/07/09 06:33:13;;;;;;;1.30;0.32;;;16.50;87.90;;;;;;5032046;28;20447;-73
2022/07/09 06:35:41;;;;;;;1.20;0.30;;;16.40;88.30;;;;;;5044411;28;20040;-73
2022/07/09 06:38:08;;;;;;;0.43;0.30;;;16.30;88.00;;;;;;5043297;28;20052;-73
2022/07/09 06:40:35;;;;;;;0.65;0.38;;;16.10;88.40;;;;;;5034537;28;20107;-73
2022/07/09 06:43:04;;;;;;;1.55;1.00;;;15.90;89.50;;;;;;5032502;28;20486;-72
2022/07/09 06:45:31;;;;;;;1.05;0.65;;;15.70;89.70;;;;;;5041919;28;20037;-72
2022/07/09 06:47:58;;;;;;;1.55;0.80;;;15.60;90.10;;;;;;5053132;28;20057;-71
2022/07/09 06:50:26;;;;;;;1.67;0.90;;;15.30;90.40;;;;;;5042457;28;20103;-72
2022/07/09 06:52:53;;;;;;;0.47;0.40;;;15.20;90.70;;;;;;5049221;28;20052;-71
2022/07/09 06:55:21;;;;;;;1.63;0.50;;;15.10;90.60;;;;;;5047279;28;20087;-73
2022/07/09 06:57:49;;;;;;;0.95;0.20;;;15.00;90.90;;;;;;5052957;28;20399;-73
2022/07/09 07:00:16;;;;;;;0.93;0.50;;;14.90;90.90;;;;;;5038104;28;20489;-73
2022/07/09 07:02:43;;;;;;;0.30;0.20;;;14.80;91.30;;;;;;5023615;28;20028;-76
2022/07/09 07:05:11;;;;;;;0.10;0.10;;;14.70;91.60;;;;;;5037906;28;20033;-73
2022/07/09 07:07:38;;;;;;;0.10;0.10;;;14.70;91.70;;;;;;5032682;28;20025;-73
2022/07/09 07:10:06;;;;;;;1.48;0.03;;;14.60;91.80;;;;;;5036324;28;20026;-72
2022/07/09 07:12:33;;;;;;;0.32;0.10;;;14.60;92.30;;;;;;5034399;28;20021;-72
2022/07/09 07:15:00;;;;;;;0.10;0.10;;;14.60;92.50;;;;;;5046854;28;20033;-72
2022/07/09 07:17:28;;;;;;;0.47;0.20;;;14.50;92.70;;;;;;5041148;28;20067;-73
2022/07/09 07:19:55;;;;;;;1.15;0.45;;;14.50;92.40;;;;;;5059086;28;20037;-72
2022/07/09 07:22:22;;;;;;;0.90;0.65;;;14.40;92.40;;;;;;5037467;28;20486;-73
2022/07/09 07:24:50;;;;;;;4.47;3.78;;;14.40;92.50;;;;;;5049680;28;20037;-73
2022/07/09 07:27:17;;;;;;;8.23;6.30;;;14.30;92.80;;;;;;5032811;28;20111;-73
2022/07/09 07:29:44;;;;;;;10.13;7.20;;;14.20;92.80;;;;;;5035036;28;20117;-73
2022/07/09 07:32:12;;;;;;;8.93;5.88;;;14.10;93.10;;;;;;5051293;28;20025;-71
2022/07/09 07:34:39;;;;;;;6.20;4.95;;;14.10;93.20;;;;;;5031834;28;20458;-74
2022/07/09 07:37:06;;;;;;;5.50;4.88;;;13.90;93.50;;;;;;5040527;28;20021;-73
2022/07/09 07:39:34;;;;;;;13.73;10.80;;;13.80;93.60;;;;;;5038515;28;20095;-73
2022/07/09 07:42:01;;;;;;;15.02;11.57;;;13.70;94.00;;;;;;5052951;28;20108;-72
2022/07/09 07:44:29;;;;;;;10.35;8.48;;;13.60;93.90;;;;;;5065901;28;20025;-73
2022/07/09 07:46:56;;;;;;;4.88;4.38;;;13.50;94.20;;;;;;5034472;28;20033;-73
2022/07/09 07:49:23;;;;;;;4.10;2.85;;;13.40;94.30;;;;;;5045116;28;20033;-72
2022/07/09 07:51:51;;;;;;;2.97;2.35;;;13.30;94.60;;;;;;5052907;28;20032;-73
2022/07/09 07:54:19;;;;;;;3.17;1.30;;;13.20;94.70;;;;;;5036440;28;20119;-73
2022/07/09 07:56:46;;;;;;;1.45;0.85;;;13.20;94.50;;;;;;5033333;28;20029;-73
2022/07/09 07:59:13;;;;;;;0.75;0.70;;;13.10;94.50;;;;;;5037100;28;20502;-74
2022/07/09 08:01:44;;;;;;;3.13;1.30;;;13.00;94.60;;;;;;5053541;28;20040;-74
2022/07/09 08:04:11;;;;;;;1.00;0.90;;;13.00;94.90;;;;;;5047035;28;20124;-74
2022/07/09 08:06:39;;;;;;;2.15;1.35;;;12.90;95.10;;;;;;5029688;28;20036;-72
2022/07/09 08:09:06;;;;;;;2.38;1.75;;;12.90;95.40;;;;;;5033863;28;20032;-73
2022/07/09 08:11:33;;;;;;;2.60;1.30;;;12.70;95.60;;;;;;5031755;28;20095;-75
2022/07/09 08:14:01;;;;;;;2.67;1.50;;;12.70;95.70;;;;;;5041129;28;20029;-72
2022/07/09 08:16:30;;;;;;;2.10;1.50;;;12.60;96.00;;;;;;5033771;28;20033;-74
2022/07/09 08:18:57;;;;;;;2.92;1.33;;;12.60;96.20;;;;;;5031050;28;20025;-75
2022/07/09 08:21:24;;;;;;;3.38;1.92;;;12.50;96.50;;;;;;5030232;28;20403;-76
2022/07/09 08:23:53;;;;;;;5.28;2.80;;;12.30;96.80;;;;;;5032063;28;20018;-75
2022/07/09 08:26:22;;;;;;;4.63;2.30;;;12.30;97.00;;;;;;5028862;28;20119;-73
2022/07/09 08:28:50;;;;;;;6.20;3.58;;;12.20;97.50;;;;;;5027166;28;20028;-74
2022/07/09 08:31:18;;;;;;;8.23;4.65;;;12.10;97.70;;;;;;5032268;28;20029;-73
2022/07/09 08:33:46;;;;;;;9.15;5.10;;;12.10;98.00;;;;;;5030874;28;20079;-74
2022/07/09 08:36:14;;;;;;;11.40;6.65;;;12.00;98.20;;;;;;5035939;28;20044;-75
2022/07/09 08:38:42;;;;;;;9.55;5.78;;;11.90;98.50;;;;;;5027155;28;20032;-75
2022/07/09 08:41:09;;;;;;;7.18;4.30;;;11.90;98.60;;;;;;5034983;28;20069;-74
2022/07/09 08:43:39;;;;;;;6.38;3.95;;;11.80;98.70;;;;;;5029498;28;20029;-75
2022/07/09 08:46:06;;;;;;;4.20;2.88;;;11.80;98.50;;;;;;5039920;28;20032;-73
2022/07/09 08:48:35;;;;;;;3.97;2.20;;;11.90;98.70;;;;;;5043544;28;20080;-73
2022/07/09 08:51:04;;;;;;;3.00;1.40;;;11.90;98.80;;;;;;5055538;28;20028;-75
2022/07/09 08:53:32;;;;;;;3.55;1.08;;;11.90;98.70;;;;;;5066388;28;20088;-73
2022/07/09 08:55:59;;;;;;;3.65;1.00;;;11.90;98.70;;;;;;5047360;28;20029;-73
2022/07/09 08:58:27;;;;;;;1.33;0.65;;;11.90;98.60;;;;;;5040181;28;20041;-75
2022/07/09 09:00:57;;;;;;;1.30;1.05;;;11.90;98.30;;;;;;5030048;28;20545;-74
2022/07/09 09:03:25;;;;;;;0.95;0.50;;;11.80;98.30;;;;;;5045376;28;20083;-74
2022/07/09 09:06:09;;;;;;;1.20;0.50;;;11.80;98.50;;;;;;5036238;28;20039;-74
2022/07/09 09:08:38;;;;;;;0.98;0.40;;;11.70;98.50;;;;;;5057666;28;20043;-76
2022/07/09 09:11:08;;;;;;;1.08;0.40;;;11.70;98.60;;;;;;5037666;28;20035;-73
2022/07/09 09:13:42;;;;;;;2.35;0.57;;;11.60;98.90;;;;;;5044680;28;20070;-73
2022/07/09 09:16:11;;;;;;;1.73;0.93;;;11.50;99.20;;;;;;5048706;28;20347;-73
2022/07/09 09:18:42;;;;;;;3.75;1.40;;;11.40;99.10;;;;;;5061095;28;20044;-74
2022/07/09 09:21:10;;;;;;;2.63;1.58;;;11.40;99.30;;;;;;5045326;28;20094;-76
2022/07/09 09:23:45;;;;;;;2.78;0.90;;;11.30;99.50;;;;;;5033752;28;20083;-75
2022/07/09 09:26:18;;;;;;;1.67;1.13;;;11.20;99.70;;;;;;5038798;28;20090;-74
2022/07/09 09:29:00;;;;;;;1.58;0.73;;;11.20;99.80;;;;;;5044331;28;20037;-75
2022/07/09 09:31:32;;;;;;;2.75;0.85;;;11.10;99.90;;;;;;5046135;28;20025;-75
2022/07/09 09:34:09;;;;;;;3.05;1.20;;;11.00;99.90;;;;;;5031430;28;20038;-75
2022/07/09 09:36:38;;;;;;;1.65;0.68;;;11.00;99.90;;;;;;5058724;28;20032;-74
2022/07/09 09:39:13;;;;;;;0.98;0.70;;;11.00;99.90;;;;;;5057325;28;20112;-75
2022/07/09 09:41:42;;;;;;;0.90;0.50;;;11.00;99.90;;;;;;5040431;28;20041;-75
2022/07/09 09:44:15;;;;;;;3.33;0.70;;;11.00;99.90;;;;;;5038613;28;20064;-74
2022/07/09 09:46:43;;;;;;;1.33;0.50;;;11.10;99.90;;;;;;5026739;28;20048;-74
2022/07/09 09:49:14;;;;;;;1.15;0.68;;;11.10;99.90;;;;;;5027264;28;20030;-73
2022/07/09 09:51:49;;;;;;;1.10;0.60;;;11.10;99.90;;;;;;5030000;28;20021;-74
2022/07/09 09:54:18;;;;;;;1.20;0.52;;;11.10;99.90;;;;;;5044228;28;22265;-74
2022/07/09 09:56:46;;;;;;;1.60;0.80;;;11.00;99.90;;;;;;5028929;28;20029;-73
2022/07/09 09:59:14;;;;;;;2.83;0.60;;;11.00;99.90;;;;;;5034922;28;22264;-75
2022/07/09 10:01:43;;;;;;;1.00;0.60;;;11.00;99.90;;;;;;5036108;28;20032;-75
2022/07/09 10:04:12;;;;;;;1.38;0.52;;;10.90;99.90;;;;;;5033875;28;20021;-74
2022/07/09 10:06:41;;;;;;;0.80;0.40;;;10.90;99.90;;;;;;5031822;28;20029;-75
2022/07/09 10:09:11;;;;;;;0.82;0.45;;;10.80;99.90;;;;;;5031887;28;20498;-74
2022/07/09 10:11:46;;;;;;;1.70;0.47;;;10.70;99.90;;;;;;5035686;28;20542;-72
2022/07/09 10:14:29;;;;;;;1.13;0.70;;;10.60;99.90;;;;;;5031601;28;20398;-73
2022/07/09 10:17:09;;;;;;;0.80;0.55;;;10.50;99.90;;;;;;5033058;28;20033;-74
2022/07/09 10:19:37;;;;;;;1.35;0.88;;;10.50;99.90;;;;;;5035152;28;20292;-72
2022/07/09 10:22:05;;;;;;;0.80;0.70;;;10.40;99.90;;;;;;5021084;28;20447;-73
2022/07/09 10:24:33;;;;;;;1.17;0.80;;;10.30;99.90;;;;;;5029665;28;20022;-76
2022/07/09 10:27:09;;;;;;;1.30;0.73;;;10.10;99.90;;;;;;5034358;28;20025;-74
2022/07/09 10:29:52;;;;;;;1.57;0.87;;;10.10;99.90;;;;;;5033613;28;20360;-74
2022/07/09 10:32:40;;;;;;;1.58;1.08;;;10.00;99.90;;;;;;5033718;28;20273;-73
2022/07/09 10:35:08;;;;;;;1.58;0.90;;;10.00;99.90;;;;;;5031983;28;20037;-74
2022/07/09 10:37:39;;;;;;;5.55;1.70;;;9.90;99.90;;;;;;5032983;28;20045;-72
2022/07/09 10:40:20;;;;;;;2.03;1.52;;;9.80;99.90;;;;;;5037505;28;20032;-73
2022/07/09 10:42:59;;;;;;;2.45;1.23;;;9.80;99.90;;;;;;5035441;28;20380;-74
2022/07/09 10:45:32;;;;;;;3.08;1.48;;;9.70;99.90;;;;;;5034935;28;20021;-73
2022/07/09 10:48:01;;;;;;;2.55;1.30;;;9.70;99.90;;;;;;5029434;28;20113;-73
2022/07/09 10:50:30;;;;;;;3.13;1.85;;;9.70;99.90;;;;;;5032670;28;20481;-77
2022/07/09 10:53:03;;;;;;;1.90;1.45;;;9.60;99.90;;;;;;5033567;28;20049;-76
2022/07/09 10:55:30;;;;;;;1.75;0.90;;;9.60;99.90;;;;;;5032480;28;20038;-73
2022/07/09 10:57:59;;;;;;;1.80;0.82;;;9.60;99.90;;;;;;5040911;28;20083;-73
2022/07/09 11:00:29;;;;;;;1.27;0.82;;;9.60;99.90;;;;;;5036777;28;20092;-74
2022/07/09 11:02:58;;;;;;;0.75;0.40;;;9.60;99.90;;;;;;5020915;28;20040;-73
2022/07/09 11:05:26;;;;;;;0.80;0.40;;;9.60;99.90;;;;;;5032068;28;20021;-73
2022/07/09 11:08:07;;;;;;;1.38;0.90;;;9.60;99.90;;;;;;5033449;28;20885;-72
2022/07/09 11:10:39;;;;;;;4.18;1.27;;;9.60;99.90;;;;;;5030774;28;20033;-72
2022/07/09 11:13:09;;;;;;;3.28;1.60;;;9.60;99.90;;;;;;5030907;28;20042;-73
2022/07/09 11:15:37;;;;;;;2.30;1.30;;;9.60;99.90;;;;;;5030276;28;20033;-76
2022/07/09 11:18:10;;;;;;;1.50;1.10;;;9.60;99.90;;;;;;5033535;28;20028;-73
2022/07/09 11:20:45;;;;;;;1.40;1.00;;;9.60;99.90;;;;;;5036765;28;20055;-73
2022/07/09 11:23:16;;;;;;;2.03;0.90;;;9.50;99.90;;;;;;5032022;28;20029;-73
2022/07/09 11:25:46;;;;;;;1.85;1.10;;;9.50;99.90;;;;;;5038443;28;20025;-72
2022/07/09 11:28:21;;;;;;;2.00;1.00;;;9.50;99.90;;;;;;5030134;28;21468;-72
2022/07/09 11:31:09;;;;;;;2.37;1.20;;;9.50;99.90;;;;;;5031422;28;20037;-74
2022/07/09 11:36:23;;;;;;;3.22;2.58;;;9.40;99.90;;;;;;5034425;28;20043;-73
2022/07/09 11:38:55;;;;;;;2.42;1.50;;;9.40;99.90;;;;;;5031021;28;20487;-73
2022/07/09 11:41:22;;;;;;;2.60;1.58;;;9.40;99.90;;;;;;5032522;28;20120;-74
2022/07/09 11:43:51;;;;;;;5.20;2.40;;;9.40;99.90;;;;;;5032697;28;20025;-72
2022/07/09 11:46:22;;;;;;;3.83;1.80;;;9.30;99.90;;;;;;5028830;28;20509;-73
2022/07/09 11:48:56;;;;;;;4.68;3.03;;;9.30;99.90;;;;;;5046603;28;20075;-73
2022/07/09 11:51:33;;;;;;;4.25;2.65;;;9.30;99.90;;;;;;5032315;28;20187;-75
2022/07/09 11:54:03;;;;;;;4.63;2.80;;;9.20;99.90;;;;;;5029306;28;20053;-74
2022/07/09 11:56:45;;;;;;;4.05;2.60;;;9.20;99.90;;;;;;5032436;28;20025;-73
2022/07/09 11:59:12;;;;;;;4.35;2.58;;;9.10;99.90;;;;;;5032994;28;20037;-73
2022/07/09 12:01:40;;;;;;;6.28;3.22;;;9.10;99.90;;;;;;5032286;28;20122;-75
2022/07/09 12:04:18;;;;;;;4.78;2.85;;;9.10;99.90;;;;;;5032634;28;20032;-74
2022/07/09 12:06:52;;;;;;;3.55;1.73;;;9.00;99.90;;;;;;5051254;28;20056;-73
2022/07/09 12:09:32;;;;;;;3.83;2.45;;;9.00;99.90;;;;;;5046435;28;20054;-73
2022/07/09 12:12:00;;;;;;;5.78;2.45;;;9.00;99.90;;;;;;5050933;28;20043;-74
2022/07/09 12:14:27;;;;;;;4.65;2.42;;;8.90;99.90;;;;;;5057501;28;20040;-72
2022/07/09 12:16:55;;;;;;;3.42;1.85;;;8.90;99.90;;;;;;5047447;28;20112;-73
2022/07/09 12:19:22;;;;;;;6.10;2.53;;;8.90;99.90;;;;;;5040832;28;20037;-74
2022/07/09 12:21:49;;;;;;;5.70;3.25;;;8.90;99.90;;;;;;5042752;28;20017;-74
2022/07/09 12:24:17;;;;;;;7.50;3.88;;;8.80;99.90;;;;;;5041355;28;20033;-72
2022/07/09 12:26:44;;;;;;;18.08;8.23;;;8.80;99.90;;;;;;5048740;28;20025;-73
2022/07/09 12:29:11;;;;;;;13.35;7.63;;;8.70;99.90;;;;;;5054767;28;20479;-73
2022/07/09 12:31:39;;;;;;;16.20;8.02;;;8.70;99.90;;;;;;5030707;28;20033;-75
2022/07/09 12:34:06;;;;;;;14.93;8.80;;;8.60;99.90;;;;;;5064979;28;20036;-76
2022/07/09 12:36:34;;;;;;;15.85;6.70;;;8.60;99.90;;;;;;5035160;28;20514;-74
2022/07/09 12:39:01;;;;;;;7.55;4.57;;;8.50;99.90;;;;;;5031476;28;20098;-75
2022/07/09 12:41:28;;;;;;;4.13;2.28;;;8.50;99.90;;;;;;5013303;28;20029;-73
2022/07/09 12:43:56;;;;;;;5.55;2.40;;;8.50;99.90;;;;;;5030625;28;20164;-74
2022/07/09 12:46:23;;;;;;;5.10;1.92;;;8.50;99.90;;;;;;5045139;28;20032;-76
2022/07/09 12:48:50;;;;;;;3.17;1.67;;;8.50;99.90;;;;;;5045076;28;20039;-75
2022/07/09 12:51:18;;;;;;;5.50;1.88;;;8.50;99.90;;;;;;5031385;28;20112;-74
2022/07/09 12:53:45;;;;;;;2.67;1.00;;;8.60;99.90;;;;;;5053686;28;20055;-74
2022/07/09 12:56:12;;;;;;;2.95;0.88;;;8.60;99.90;;;;;;5042295;28;20052;-74
2022/07/09 12:58:40;;;;;;;1.52;0.77;;;8.60;99.90;;;;;;5033702;28;20339;-73